Arapaho — WCX9424 — position and weather

sailwx.info

Track history (hours):
 
Tides and Currents Weather Stations Pressure Air Temp Water Temp Dewpoint Dewpoint Depression Visibility Wind Speed Wind Dir Waves Ship Positions

Arapaho

Owner: SAUSE BROTHERS OCEAN TOWING CO INC, LONG BEACH, CA. More information available from US FCC via Universal Licensing System and Coast Guard Vessel Documentation Center.

Last reported at 2016-May-03 15:33 UTC. Time now 2016-May-03 16:18 UTC.
Position N 33°44' W 118°08'.

Length 37 m; draft 1.5 m.

Type: Towing. MMSI: 367004270.

Date/timePositionNaut miles runAvg speedWind from/ knotsBaromVisibWave heightAir tempDewpointWater temp
2016-May-03 15:33N 33°44' W 118°08'1 1.3
2016-May-03 14:33N 33°45' W 118°10'2 2.3
2016-May-03 13:33N 33°44' W 118°12'1 0.8
2016-May-03 12:34N 33°45' W 118°12'0 0.0
2016-May-03 11:33N 33°45' W 118°12'0 0.0
2016-May-03 10:33N 33°45' W 118°12'0 0.0
2016-May-03 09:33N 33°45' W 118°12'0 0.0
2016-May-03 08:33N 33°45' W 118°12'3 3.2
2016-May-03 07:33N 33°44' W 118°08'2 2.3
2016-May-03 06:33N 33°46' W 118°11'1 1.4
2016-May-03 05:33N 33°45' W 118°10'2 2.1
2016-May-03 04:33N 33°45' W 118°12'0 0.0
2016-May-03 03:33N 33°45' W 118°12'2 2.2
2016-May-03 02:33N 33°45' W 118°10'2 2.1
2016-May-03 01:33N 33°44' W 118°12'1 0.9
2016-May-03 00:33N 33°45' W 118°12'2 2.0
2016-May-02 23:33N 33°45' W 118°10'1 1.4
2016-May-02 22:33N 33°44' W 118°08'2 2.4
2016-May-02 21:33N 33°44' W 118°11'1 1.1
2016-May-02 20:33N 33°45' W 118°12'0 0.0
2016-May-02 19:33N 33°45' W 118°12'0 0.0
2016-May-02 18:33N 33°45' W 118°12'0 0.0
2016-May-02 17:33N 33°45' W 118°12'1 1.4
2016-May-02 16:33N 33°44' W 118°11'2 2.1
2016-May-02 15:33N 33°44' W 118°08'0 0.0
2016-May-02 14:33N 33°44' W 118°08'3 3.2
2016-May-02 13:33N 33°45' W 118°12'0 0.1
2016-May-02 12:33N 33°45' W 118°12'0 0.0
2016-May-02 11:33N 33°45' W 118°12'0 0.0
2016-May-02 10:33N 33°45' W 118°12'0 0.0
2016-May-02 09:34N 33°45' W 118°12'0 0.0
2016-May-02 08:33N 33°45' W 118°12'0 0.0
2016-May-02 07:33N 33°45' W 118°12'0 0.0
2016-May-02 06:33N 33°45' W 118°12'0 0.0
2016-May-02 05:33N 33°45' W 118°12'0 0.0
2016-May-02 04:33N 33°45' W 118°12'3 3.3
2016-May-02 03:33N 33°44' W 118°08'3 2.7
2016-May-02 02:33N 33°44' W 118°12'1 1.0
2016-May-02 01:33N 33°45' W 118°12'0 0.0
2016-May-02 00:33N 33°45' W 118°12'0 0.0
2016-May-01 23:33N 33°45' W 118°12'0 0.0
2016-May-01 22:33N 33°45' W 118°12'0 0.0
2016-May-01 21:33N 33°45' W 118°12'0 0.0
2016-May-01 20:33N 33°45' W 118°12'3 3.1
2016-May-01 19:32N 33°44' W 118°08'1 1.1
2016-May-01 18:33N 33°45' W 118°09'3 2.6
2016-May-01 17:33N 33°44' W 118°12'1 0.5
2016-May-01 16:33N 33°45' W 118°12'3 2.5
2016-May-01 15:20N 33°43' W 118°15'1 1.7
2016-May-01 14:33N 33°44' W 118°16'2 2.0
2016-May-01 13:21N 33°43' W 118°14'2 2.1
2016-May-01 12:33N 33°45' W 118°12'0 0.0
2016-May-01 11:30N 33°45' W 118°12'0 0.0
2016-May-01 10:33N 33°45' W 118°12'0 0.0
2016-May-01 09:33N 33°45' W 118°12'0 0.1
2016-May-01 08:33N 33°45' W 118°12'0 0.2
2016-May-01 07:33N 33°44' W 118°12'2 2.2
2016-May-01 06:33N 33°45' W 118°10'1 0.9
2016-May-01 05:28N 33°45' W 118°08'0 0.1
2016-May-01 04:33N 33°44' W 118°08'1 1.4
2016-May-01 03:33N 33°45' W 118°10'0 0.2
2016-May-01 02:33N 33°45' W 118°10'2 2.3
2016-May-01 01:33N 33°45' W 118°12'0 0.1
2016-May-01 00:33N 33°45' W 118°12'1 1.0
2016-Apr-30 23:33N 33°44' W 118°12'2 2.0
2016-Apr-30 22:33N 33°45' W 118°10'0 0.0
2016-Apr-30 21:33N 33°45' W 118°10'2 2.2
2016-Apr-30 20:33N 33°45' W 118°12'1 1.3
2016-Apr-30 19:32N 33°44' W 118°11'2 2.2
2016-Apr-30 18:33N 33°44' W 118°08'0 0.0
2016-Apr-30 17:32N 33°44' W 118°08'1 1.1
2016-Apr-30 16:33N 33°45' W 118°10'1 0.6
2016-Apr-30 15:33N 33°45' W 118°10'1 1.0
2016-Apr-30 14:33N 33°46' W 118°11'2 1.5
2016-Apr-30 13:33N 33°45' W 118°12'0 0.0
2016-Apr-30 12:33N 33°45' W 118°12'0 0.0
2016-Apr-30 11:33N 33°45' W 118°12'0 0.0
2016-Apr-30 10:33N 33°45' W 118°12'0 0.0
2016-Apr-30 09:33N 33°45' W 118°12'2 1.5
2016-Apr-30 08:33N 33°46' W 118°11'2 1.6
2016-Apr-30 07:33N 33°45' W 118°09'2 2.5
2016-Apr-30 06:33N 33°45' W 118°12'0 0.0
2016-Apr-30 05:33N 33°45' W 118°12'0 0.0
2016-Apr-30 04:33N 33°45' W 118°12'0 0.0
2016-Apr-30 03:33N 33°45' W 118°12'0 0.0
2016-Apr-30 02:33N 33°45' W 118°12'0 0.0
2016-Apr-30 01:33N 33°45' W 118°12'0 0.0
2016-Apr-30 00:33N 33°45' W 118°12'0 0.0
2016-Apr-29 23:33N 33°45' W 118°12'2 2.2
2016-Apr-29 22:33N 33°45' W 118°10'2 2.0
2016-Apr-29 21:33N 33°44' W 118°12'1 1.0
2016-Apr-29 20:33N 33°45' W 118°12'0 0.0
2016-Apr-29 19:33N 33°45' W 118°12'0 0.0
2016-Apr-29 18:32N 33°45' W 118°12'0 0.0
2016-Apr-29 17:33N 33°45' W 118°12'0 0.0
2016-Apr-29 16:33N 33°45' W 118°12'2 2.1
2016-Apr-29 15:32N 33°44' W 118°10'1 1.2
2016-Apr-29 14:33N 33°44' W 118°08'3 3.3
2016-Apr-29 13:33N 33°44' W 118°12'0 0.4
2016-Apr-29 12:33N 33°45' W 118°12'0 0.0
2016-Apr-29 11:33N 33°45' W 118°12'0 0.0
2016-Apr-29 10:33N 33°45' W 118°12'0 0.0
2016-Apr-29 09:33N 33°45' W 118°12'0 0.0
2016-Apr-29 08:33N 33°45' W 118°12'0 0.0
2016-Apr-29 07:33N 33°45' W 118°12'0 0.0
2016-Apr-29 06:30N 33°45' W 118°12'0 0.0
2016-Apr-29 05:33N 33°45' W 118°12'3 3.2
2016-Apr-29 04:33N 33°44' W 118°08'1 1.4
2016-Apr-29 03:33N 33°45' W 118°10'1 0.6
2016-Apr-29 02:33N 33°45' W 118°10'2 2.0
2016-Apr-29 01:33N 33°44' W 118°12'1 0.7
2016-Apr-29 00:33N 33°45' W 118°12'0 0.0
2016-Apr-28 23:33N 33°45' W 118°12'3 2.8
2016-Apr-28 22:33N 33°44' W 118°09'2 2.5
2016-Apr-28 21:33N 33°44' W 118°12'0 0.4
2016-Apr-28 20:33N 33°44' W 118°12'2 2.4
2016-Apr-28 19:33N 33°45' W 118°10'1 1.3
2016-Apr-28 18:33N 33°44' W 118°08'3 3.3
2016-Apr-28 17:33N 33°45' W 118°12'1 1.0
2016-Apr-28 16:30N 33°44' W 118°11'2 1.7
2016-Apr-28 15:33N 33°45' W 118°10'1 1.0
2016-Apr-28 14:33N 33°45' W 118°09'3 2.6
2016-Apr-28 13:33N 33°44' W 118°12'1 1.0
2016-Apr-28 12:33N 33°45' W 118°12'0 0.0
2016-Apr-28 11:33N 33°45' W 118°12'0 0.0
2016-Apr-28 10:33N 33°45' W 118°12'0 0.0
2016-Apr-28 09:33N 33°45' W 118°12'2 2.2
2016-Apr-28 08:33N 33°45' W 118°10'1 1.1
2016-Apr-28 07:34N 33°44' W 118°08'2 2.3
2016-Apr-28 06:33N 33°44' W 118°11'1 1.2
2016-Apr-28 05:33N 33°45' W 118°12'0 0.0
2016-Apr-28 04:32N 33°45' W 118°12'0 0.0
2016-Apr-28 03:33N 33°45' W 118°12'0 0.0
2016-Apr-28 02:33N 33°45' W 118°12'0 0.0
2016-Apr-28 01:33N 33°45' W 118°12'0 0.0
2016-Apr-28 00:33N 33°45' W 118°12'0 0.0
2016-Apr-27 23:33N 33°45' W 118°12'2 2.3
2016-Apr-27 22:33N 33°45' W 118°10'2 2.3
2016-Apr-27 21:33N 33°45' W 118°12'0 0.0
2016-Apr-27 20:33N 33°45' W 118°12'3 3.0
2016-Apr-27 19:33N 33°45' W 118°09'1 0.5
2016-Apr-27 18:33N 33°45' W 118°09'3 2.8
2016-Apr-27 17:33N 33°45' W 118°12'1 1.4
2016-Apr-27 16:33N 33°44' W 118°11'1 1.5
2016-Apr-27 15:33N 33°45' W 118°09'0 0.4
2016-Apr-27 14:33N 33°45' W 118°10'2 2.2
2016-Apr-27 13:33N 33°45' W 118°12'0 0.0
2016-Apr-27 12:33N 33°45' W 118°12'0 0.0
2016-Apr-27 11:33N 33°45' W 118°12'0 0.0
2016-Apr-27 10:33N 33°45' W 118°12'0 0.0
2016-Apr-27 09:33N 33°45' W 118°12'0 0.0
2016-Apr-27 08:33N 33°45' W 118°12'1 0.8
2016-Apr-27 07:33N 33°44' W 118°12'2 2.0
2016-Apr-27 06:33N 33°45' W 118°10'2 1.5
2016-Apr-27 05:33N 33°44' W 118°11'1 1.1
2016-Apr-27 04:33N 33°45' W 118°12'0 0.0
2016-Apr-27 03:33N 33°45' W 118°12'0 0.0
2016-Apr-27 02:33N 33°45' W 118°12'0 0.0
2016-Apr-27 01:34N 33°45' W 118°12'0 0.0
2016-Apr-27 00:33N 33°45' W 118°12'2 2.3
2016-Apr-26 23:33N 33°45' W 118°10'1 1.3
2016-Apr-26 22:33N 33°44' W 118°08'2 1.6
2016-Apr-26 21:33N 33°44' W 118°10'0 0.4
2016-Apr-26 20:33N 33°44' W 118°11'2 2.0
2016-Apr-26 19:34N 33°44' W 118°08'1 0.8
2016-Apr-26 18:33N 33°45' W 118°09'3 2.6
2016-Apr-26 17:33N 33°45' W 118°12'0 0.0
2016-Apr-26 16:33N 33°45' W 118°12'2 2.2
2016-Apr-26 15:33N 33°45' W 118°10'1 1.1
2016-Apr-26 14:34N 33°44' W 118°08'3 3.2
2016-Apr-26 13:33N 33°45' W 118°12'0 0.0
2016-Apr-26 12:33N 33°45' W 118°12'0 0.0
2016-Apr-26 11:33N 33°45' W 118°12'0 0.0
2016-Apr-26 10:33N 33°45' W 118°12'0 0.0
2016-Apr-26 09:33N 33°45' W 118°12'0 0.0
2016-Apr-26 08:33N 33°45' W 118°12'0 0.0
2016-Apr-26 07:30N 33°45' W 118°12'3 3.4
2016-Apr-26 06:33N 33°44' W 118°08'0 0.0
2016-Apr-26 05:34N 33°44' W 118°08'2 2.0
2016-Apr-26 04:33N 33°46' W 118°10'2 1.5
2016-Apr-26 03:32N 33°45' W 118°09'3 2.8
2016-Apr-26 02:33N 33°45' W 118°12'0 0.0
2016-Apr-26 01:33N 33°45' W 118°12'0 0.0
2016-Apr-26 00:33N 33°45' W 118°12'2 2.3
2016-Apr-25 23:33N 33°45' W 118°10'0 0.2
2016-Apr-25 22:33N 33°45' W 118°09'2 2.3
2016-Apr-25 21:33N 33°44' W 118°12'1 0.9
2016-Apr-25 20:33N 33°45' W 118°12'2 2.0
2016-Apr-25 19:33N 33°44' W 118°10'2 1.9
2016-Apr-25 18:33N 33°45' W 118°12'0 0.1
2016-Apr-25 17:33N 33°45' W 118°12'0 0.0
2016-Apr-25 16:32N 33°45' W 118°12'0 0.0
2016-Apr-25 15:33N 33°45' W 118°12'3 3.0
2016-Apr-25 14:33N 33°44' W 118°09'3 3.0
2016-Apr-25 13:33N 33°45' W 118°12'0 0.0
2016-Apr-25 12:33N 33°45' W 118°12'0 0.0
2016-Apr-25 11:33N 33°45' W 118°12'0 0.0
2016-Apr-25 10:33N 33°45' W 118°12'0 0.0
2016-Apr-25 09:33N 33°45' W 118°12'0 0.1
2016-Apr-25 08:33N 33°45' W 118°12'0 0.1
2016-Apr-25 07:33N 33°45' W 118°12'0 0.0
2016-Apr-25 06:33N 33°45' W 118°12'0 0.1
2016-Apr-25 05:33N 33°45' W 118°12'0 0.1
2016-Apr-25 04:33N 33°45' W 118°12'0 0.0
2016-Apr-25 03:33N 33°45' W 118°12'0 0.0
2016-Apr-25 02:33N 33°45' W 118°12'0 0.0
2016-Apr-25 01:33N 33°45' W 118°12'0 0.0
2016-Apr-25 00:33N 33°45' W 118°12'0 0.1
2016-Apr-24 23:33N 33°45' W 118°12'0 0.1
2016-Apr-24 22:34N 33°45' W 118°12'1 1.4
2016-Apr-24 21:33N 33°44' W 118°11'1 1.4
2016-Apr-24 20:33N 33°45' W 118°12'0 0.1
2016-Apr-24 19:33N 33°45' W 118°12'3 3.2
2016-Apr-24 18:33N 33°44' W 118°08'3 3.2
2016-Apr-24 17:33N 33°45' W 118°12'0 0.0
2016-Apr-24 16:33N 33°45' W 118°12'0 0.0
2016-Apr-24 15:33N 33°45' W 118°12'0 0.0
2016-Apr-24 14:33N 33°45' W 118°12'0 0.0
2016-Apr-24 13:33N 33°45' W 118°12'0 0.0
2016-Apr-24 12:32N 33°45' W 118°12'0 0.0
2016-Apr-24 11:29N 33°45' W 118°12'0 0.0
2016-Apr-24 09:33N 33°45' W 118°12'0 0.0
2016-Apr-24 08:31N 33°45' W 118°12'3 3.1
2016-Apr-24 07:29N 33°44' W 118°08'2 2.0
2016-Apr-24 06:17N 33°44' W 118°11'1 1.6
2016-Apr-24 05:33N 33°45' W 118°12'0 0.0
2016-Apr-24 04:22N 33°45' W 118°12'3 3.5
2016-Apr-24 03:26N 33°44' W 118°08'1 1.5
2016-Apr-24 02:33N 33°45' W 118°10'2 2.2
2016-Apr-24 01:33N 33°45' W 118°12'0 0.0
2016-Apr-24 00:28N 33°45' W 118°12'0 0.1
2016-Apr-23 23:33N 33°45' W 118°12'1 1.3
2016-Apr-23 22:32N 33°44' W 118°11'1 0.3
2016-Apr-23 20:28N 33°44' W 118°12'2 2.2
2016-Apr-23 19:27N 33°44' W 118°09'2 1.7
2016-Apr-23 18:23N 33°46' W 118°11'1 0.7
2016-Apr-23 16:26N 33°45' W 118°10'  
Track history (hours):
 
Tides and Currents Weather Stations Pressure Air Temp Water Temp Dewpoint Dewpoint Depression Visibility Wind Speed Wind Dir Waves Ship Positions

Arapaho

Owner: SAUSE BROTHERS OCEAN TOWING CO INC, LONG BEACH, CA. More information available from US FCC via Universal Licensing System and Coast Guard Vessel Documentation Center.

Last reported at 2016-May-03 15:33 UTC. Time now 2016-May-03 16:18 UTC.
Position N 33°44' W 118°08'.

Length 37 m; draft 1.5 m.

Type: Towing. MMSI: 367004270.

Date/timePositionNaut miles runAvg speedWind from/ knotsBaromVisibWave heightAir tempDewpointWater temp
2016-May-03 15:33N 33°44' W 118°08'1 1.3
2016-May-03 14:33N 33°45' W 118°10'2 2.3
2016-May-03 13:33N 33°44' W 118°12'1 0.8
2016-May-03 12:34N 33°45' W 118°12'0 0.0
2016-May-03 11:33N 33°45' W 118°12'0 0.0
2016-May-03 10:33N 33°45' W 118°12'0 0.0
2016-May-03 09:33N 33°45' W 118°12'0 0.0
2016-May-03 08:33N 33°45' W 118°12'3 3.2
2016-May-03 07:33N 33°44' W 118°08'2 2.3
2016-May-03 06:33N 33°46' W 118°11'1 1.4
2016-May-03 05:33N 33°45' W 118°10'2 2.1
2016-May-03 04:33N 33°45' W 118°12'0 0.0
2016-May-03 03:33N 33°45' W 118°12'2 2.2
2016-May-03 02:33N 33°45' W 118°10'2 2.1
2016-May-03 01:33N 33°44' W 118°12'1 0.9
2016-May-03 00:33N 33°45' W 118°12'2 2.0
2016-May-02 23:33N 33°45' W 118°10'1 1.4
2016-May-02 22:33N 33°44' W 118°08'2 2.4
2016-May-02 21:33N 33°44' W 118°11'1 1.1
2016-May-02 20:33N 33°45' W 118°12'0 0.0
2016-May-02 19:33N 33°45' W 118°12'0 0.0
2016-May-02 18:33N 33°45' W 118°12'0 0.0
2016-May-02 17:33N 33°45' W 118°12'1 1.4
2016-May-02 16:33N 33°44' W 118°11'2 2.1
2016-May-02 15:33N 33°44' W 118°08'0 0.0
2016-May-02 14:33N 33°44' W 118°08'3 3.2
2016-May-02 13:33N 33°45' W 118°12'0 0.1
2016-May-02 12:33N 33°45' W 118°12'0 0.0
2016-May-02 11:33N 33°45' W 118°12'0 0.0
2016-May-02 10:33N 33°45' W 118°12'0 0.0
2016-May-02 09:34N 33°45' W 118°12'0 0.0
2016-May-02 08:33N 33°45' W 118°12'0 0.0
2016-May-02 07:33N 33°45' W 118°12'0 0.0
2016-May-02 06:33N 33°45' W 118°12'0 0.0
2016-May-02 05:33N 33°45' W 118°12'0 0.0
2016-May-02 04:33N 33°45' W 118°12'3 3.3
2016-May-02 03:33N 33°44' W 118°08'3 2.7
2016-May-02 02:33N 33°44' W 118°12'1 1.0
2016-May-02 01:33N 33°45' W 118°12'0 0.0
2016-May-02 00:33N 33°45' W 118°12'0 0.0
2016-May-01 23:33N 33°45' W 118°12'0 0.0
2016-May-01 22:33N 33°45' W 118°12'0 0.0
2016-May-01 21:33N 33°45' W 118°12'0 0.0
2016-May-01 20:33N 33°45' W 118°12'3 3.1
2016-May-01 19:32N 33°44' W 118°08'1 1.1
2016-May-01 18:33N 33°45' W 118°09'3 2.6
2016-May-01 17:33N 33°44' W 118°12'1 0.5
2016-May-01 16:33N 33°45' W 118°12'3 2.5
2016-May-01 15:20N 33°43' W 118°15'1 1.7
2016-May-01 14:33N 33°44' W 118°16'2 2.0
2016-May-01 13:21N 33°43' W 118°14'2 2.1
2016-May-01 12:33N 33°45' W 118°12'0 0.0
2016-May-01 11:30N 33°45' W 118°12'0 0.0
2016-May-01 10:33N 33°45' W 118°12'0 0.0
2016-May-01 09:33N 33°45' W 118°12'0 0.1
2016-May-01 08:33N 33°45' W 118°12'0 0.2
2016-May-01 07:33N 33°44' W 118°12'2 2.2
2016-May-01 06:33N 33°45' W 118°10'1 0.9
2016-May-01 05:28N 33°45' W 118°08'0 0.1
2016-May-01 04:33N 33°44' W 118°08'1 1.4
2016-May-01 03:33N 33°45' W 118°10'0 0.2
2016-May-01 02:33N 33°45' W 118°10'2 2.3
2016-May-01 01:33N 33°45' W 118°12'0 0.1
2016-May-01 00:33N 33°45' W 118°12'1 1.0
2016-Apr-30 23:33N 33°44' W 118°12'2 2.0
2016-Apr-30 22:33N 33°45' W 118°10'0 0.0
2016-Apr-30 21:33N 33°45' W 118°10'2 2.2
2016-Apr-30 20:33N 33°45' W 118°12'1 1.3
2016-Apr-30 19:32N 33°44' W 118°11'2 2.2
2016-Apr-30 18:33N 33°44' W 118°08'0 0.0
2016-Apr-30 17:32N 33°44' W 118°08'1 1.1
2016-Apr-30 16:33N 33°45' W 118°10'1 0.6
2016-Apr-30 15:33N 33°45' W 118°10'1 1.0
2016-Apr-30 14:33N 33°46' W 118°11'2 1.5
2016-Apr-30 13:33N 33°45' W 118°12'0 0.0
2016-Apr-30 12:33N 33°45' W 118°12'0 0.0
2016-Apr-30 11:33N 33°45' W 118°12'0 0.0
2016-Apr-30 10:33N 33°45' W 118°12'0 0.0
2016-Apr-30 09:33N 33°45' W 118°12'2 1.5
2016-Apr-30 08:33N 33°46' W 118°11'2 1.6
2016-Apr-30 07:33N 33°45' W 118°09'2 2.5
2016-Apr-30 06:33N 33°45' W 118°12'0 0.0
2016-Apr-30 05:33N 33°45' W 118°12'0 0.0
2016-Apr-30 04:33N 33°45' W 118°12'0 0.0
2016-Apr-30 03:33N 33°45' W 118°12'0 0.0
2016-Apr-30 02:33N 33°45' W 118°12'0 0.0
2016-Apr-30 01:33N 33°45' W 118°12'0 0.0
2016-Apr-30 00:33N 33°45' W 118°12'0 0.0
2016-Apr-29 23:33N 33°45' W 118°12'2 2.2
2016-Apr-29 22:33N 33°45' W 118°10'2 2.0
2016-Apr-29 21:33N 33°44' W 118°12'1 1.0
2016-Apr-29 20:33N 33°45' W 118°12'0 0.0
2016-Apr-29 19:33N 33°45' W 118°12'0 0.0
2016-Apr-29 18:32N 33°45' W 118°12'0 0.0
2016-Apr-29 17:33N 33°45' W 118°12'0 0.0
2016-Apr-29 16:33N 33°45' W 118°12'2 2.1
2016-Apr-29 15:32N 33°44' W 118°10'1 1.2
2016-Apr-29 14:33N 33°44' W 118°08'3 3.3
2016-Apr-29 13:33N 33°44' W 118°12'0 0.4
2016-Apr-29 12:33N 33°45' W 118°12'0 0.0
2016-Apr-29 11:33N 33°45' W 118°12'0 0.0
2016-Apr-29 10:33N 33°45' W 118°12'0 0.0
2016-Apr-29 09:33N 33°45' W 118°12'0 0.0
2016-Apr-29 08:33N 33°45' W 118°12'0 0.0
2016-Apr-29 07:33N 33°45' W 118°12'0 0.0
2016-Apr-29 06:30N 33°45' W 118°12'0 0.0
2016-Apr-29 05:33N 33°45' W 118°12'3 3.2
2016-Apr-29 04:33N 33°44' W 118°08'1 1.4
2016-Apr-29 03:33N 33°45' W 118°10'1 0.6
2016-Apr-29 02:33N 33°45' W 118°10'2 2.0
2016-Apr-29 01:33N 33°44' W 118°12'1 0.7
2016-Apr-29 00:33N 33°45' W 118°12'0 0.0
2016-Apr-28 23:33N 33°45' W 118°12'3 2.8
2016-Apr-28 22:33N 33°44' W 118°09'2 2.5
2016-Apr-28 21:33N 33°44' W 118°12'0 0.4
2016-Apr-28 20:33N 33°44' W 118°12'2 2.4
2016-Apr-28 19:33N 33°45' W 118°10'1 1.3
2016-Apr-28 18:33N 33°44' W 118°08'3 3.3
2016-Apr-28 17:33N 33°45' W 118°12'1 1.0
2016-Apr-28 16:30N 33°44' W 118°11'2 1.7
2016-Apr-28 15:33N 33°45' W 118°10'1 1.0
2016-Apr-28 14:33N 33°45' W 118°09'3 2.6
2016-Apr-28 13:33N 33°44' W 118°12'1 1.0
2016-Apr-28 12:33N 33°45' W 118°12'0 0.0
2016-Apr-28 11:33N 33°45' W 118°12'0 0.0
2016-Apr-28 10:33N 33°45' W 118°12'0 0.0
2016-Apr-28 09:33N 33°45' W 118°12'2 2.2
2016-Apr-28 08:33N 33°45' W 118°10'1 1.1
2016-Apr-28 07:34N 33°44' W 118°08'2 2.3
2016-Apr-28 06:33N 33°44' W 118°11'1 1.2
2016-Apr-28 05:33N 33°45' W 118°12'0 0.0
2016-Apr-28 04:32N 33°45' W 118°12'0 0.0
2016-Apr-28 03:33N 33°45' W 118°12'0 0.0
2016-Apr-28 02:33N 33°45' W 118°12'0 0.0
2016-Apr-28 01:33N 33°45' W 118°12'0 0.0
2016-Apr-28 00:33N 33°45' W 118°12'0 0.0
2016-Apr-27 23:33N 33°45' W 118°12'2 2.3
2016-Apr-27 22:33N 33°45' W 118°10'2 2.3
2016-Apr-27 21:33N 33°45' W 118°12'0 0.0
2016-Apr-27 20:33N 33°45' W 118°12'3 3.0
2016-Apr-27 19:33N 33°45' W 118°09'1 0.5
2016-Apr-27 18:33N 33°45' W 118°09'3 2.8
2016-Apr-27 17:33N 33°45' W 118°12'1 1.4
2016-Apr-27 16:33N 33°44' W 118°11'1 1.5
2016-Apr-27 15:33N 33°45' W 118°09'0 0.4
2016-Apr-27 14:33N 33°45' W 118°10'2 2.2
2016-Apr-27 13:33N 33°45' W 118°12'0 0.0
2016-Apr-27 12:33N 33°45' W 118°12'0 0.0
2016-Apr-27 11:33N 33°45' W 118°12'0 0.0
2016-Apr-27 10:33N 33°45' W 118°12'0 0.0
2016-Apr-27 09:33N 33°45' W 118°12'0 0.0
2016-Apr-27 08:33N 33°45' W 118°12'1 0.8
2016-Apr-27 07:33N 33°44' W 118°12'2 2.0
2016-Apr-27 06:33N 33°45' W 118°10'2 1.5
2016-Apr-27 05:33N 33°44' W 118°11'1 1.1
2016-Apr-27 04:33N 33°45' W 118°12'0 0.0
2016-Apr-27 03:33N 33°45' W 118°12'0 0.0
2016-Apr-27 02:33N 33°45' W 118°12'0 0.0
2016-Apr-27 01:34N 33°45' W 118°12'0 0.0
2016-Apr-27 00:33N 33°45' W 118°12'2 2.3
2016-Apr-26 23:33N 33°45' W 118°10'1 1.3
2016-Apr-26 22:33N 33°44' W 118°08'2 1.6
2016-Apr-26 21:33N 33°44' W 118°10'0 0.4
2016-Apr-26 20:33N 33°44' W 118°11'2 2.0
2016-Apr-26 19:34N 33°44' W 118°08'1 0.8
2016-Apr-26 18:33N 33°45' W 118°09'3 2.6
2016-Apr-26 17:33N 33°45' W 118°12'0 0.0
2016-Apr-26 16:33N 33°45' W 118°12'2 2.2
2016-Apr-26 15:33N 33°45' W 118°10'1 1.1
2016-Apr-26 14:34N 33°44' W 118°08'3 3.2
2016-Apr-26 13:33N 33°45' W 118°12'0 0.0
2016-Apr-26 12:33N 33°45' W 118°12'0 0.0
2016-Apr-26 11:33N 33°45' W 118°12'0 0.0
2016-Apr-26 10:33N 33°45' W 118°12'0 0.0
2016-Apr-26 09:33N 33°45' W 118°12'0 0.0
2016-Apr-26 08:33N 33°45' W 118°12'0 0.0
2016-Apr-26 07:30N 33°45' W 118°12'3 3.4
2016-Apr-26 06:33N 33°44' W 118°08'0 0.0
2016-Apr-26 05:34N 33°44' W 118°08'2 2.0
2016-Apr-26 04:33N 33°46' W 118°10'2 1.5
2016-Apr-26 03:32N 33°45' W 118°09'3 2.8
2016-Apr-26 02:33N 33°45' W 118°12'0 0.0
2016-Apr-26 01:33N 33°45' W 118°12'0 0.0
2016-Apr-26 00:33N 33°45' W 118°12'2 2.3
2016-Apr-25 23:33N 33°45' W 118°10'0 0.2
2016-Apr-25 22:33N 33°45' W 118°09'2 2.3
2016-Apr-25 21:33N 33°44' W 118°12'1 0.9
2016-Apr-25 20:33N 33°45' W 118°12'2 2.0
2016-Apr-25 19:33N 33°44' W 118°10'2 1.9
2016-Apr-25 18:33N 33°45' W 118°12'0 0.1
2016-Apr-25 17:33N 33°45' W 118°12'0 0.0
2016-Apr-25 16:32N 33°45' W 118°12'0 0.0
2016-Apr-25 15:33N 33°45' W 118°12'3 3.0
2016-Apr-25 14:33N 33°44' W 118°09'3 3.0
2016-Apr-25 13:33N 33°45' W 118°12'0 0.0
2016-Apr-25 12:33N 33°45' W 118°12'0 0.0
2016-Apr-25 11:33N 33°45' W 118°12'0 0.0
2016-Apr-25 10:33N 33°45' W 118°12'0 0.0
2016-Apr-25 09:33N 33°45' W 118°12'0 0.1
2016-Apr-25 08:33N 33°45' W 118°12'0 0.1
2016-Apr-25 07:33N 33°45' W 118°12'0 0.0
2016-Apr-25 06:33N 33°45' W 118°12'0 0.1
2016-Apr-25 05:33N 33°45' W 118°12'0 0.1
2016-Apr-25 04:33N 33°45' W 118°12'0 0.0
2016-Apr-25 03:33N 33°45' W 118°12'0 0.0
2016-Apr-25 02:33N 33°45' W 118°12'0 0.0
2016-Apr-25 01:33N 33°45' W 118°12'0 0.0
2016-Apr-25 00:33N 33°45' W 118°12'0 0.1
2016-Apr-24 23:33N 33°45' W 118°12'0 0.1
2016-Apr-24 22:34N 33°45' W 118°12'1 1.4
2016-Apr-24 21:33N 33°44' W 118°11'1 1.4
2016-Apr-24 20:33N 33°45' W 118°12'0 0.1
2016-Apr-24 19:33N 33°45' W 118°12'3 3.2
2016-Apr-24 18:33N 33°44' W 118°08'3 3.2
2016-Apr-24 17:33N 33°45' W 118°12'0 0.0
2016-Apr-24 16:33N 33°45' W 118°12'0 0.0
2016-Apr-24 15:33N 33°45' W 118°12'0 0.0
2016-Apr-24 14:33N 33°45' W 118°12'0 0.0
2016-Apr-24 13:33N 33°45' W 118°12'0 0.0
2016-Apr-24 12:32N 33°45' W 118°12'0 0.0
2016-Apr-24 11:29N 33°45' W 118°12'0 0.0
2016-Apr-24 09:33N 33°45' W 118°12'0 0.0
2016-Apr-24 08:31N 33°45' W 118°12'3 3.1
2016-Apr-24 07:29N 33°44' W 118°08'2 2.0
2016-Apr-24 06:17N 33°44' W 118°11'1 1.6
2016-Apr-24 05:33N 33°45' W 118°12'0 0.0
2016-Apr-24 04:22N 33°45' W 118°12'3 3.5
2016-Apr-24 03:26N 33°44' W 118°08'1 1.5
2016-Apr-24 02:33N 33°45' W 118°10'2 2.2
2016-Apr-24 01:33N 33°45' W 118°12'0 0.0
2016-Apr-24 00:28N 33°45' W 118°12'0 0.1
2016-Apr-23 23:33N 33°45' W 118°12'1 1.3
2016-Apr-23 22:32N 33°44' W 118°11'1 0.3
2016-Apr-23 20:28N 33°44' W 118°12'2 2.2
2016-Apr-23 19:27N 33°44' W 118°09'2 1.7
2016-Apr-23 18:23N 33°46' W 118°11'1 0.7
2016-Apr-23 16:26N 33°45' W 118°10'  

Dump ship's entire track history